sensor_id;sensor_type;location;lat;lon;timestamp;P1;durP1;ratioP1;P2;durP2;ratioP2
20627;SDS011;10473;42.734;24.258;2023-04-24T00:00:54;3.17;;;1.80;;
20627;SDS011;10473;42.734;24.258;2023-04-24T00:03:24;1.77;;;1.67;;
20627;SDS011;10473;42.734;24.258;2023-04-24T00:05:52;1.93;;;1.27;;
20627;SDS011;10473;42.734;24.258;2023-04-24T00:08:19;4.80;;;2.00;;
20627;SDS011;10473;42.734;24.258;2023-04-24T00:10:48;2.20;;;1.97;;
20627;SDS011;10473;42.734;24.258;2023-04-24T00:13:16;4.37;;;1.97;;
20627;SDS011;10473;42.734;24.258;2023-04-24T00:15:44;2.80;;;2.00;;
20627;SDS011;10473;42.734;24.258;2023-04-24T00:18:11;2.10;;;1.87;;
20627;SDS011;10473;42.734;24.258;2023-04-24T00:20:40;2.40;;;1.50;;
20627;SDS011;10473;42.734;24.258;2023-04-24T00:23:09;4.77;;;3.30;;
20627;SDS011;10473;42.734;24.258;2023-04-24T00:25:37;9.90;;;4.17;;
20627;SDS011;10473;42.734;24.258;2023-04-24T00:28:05;7.03;;;3.13;;
20627;SDS011;10473;42.734;24.258;2023-04-24T00:30:34;4.13;;;3.10;;
20627;SDS011;10473;42.734;24.258;2023-04-24T00:33:02;5.17;;;3.33;;
20627;SDS011;10473;42.734;24.258;2023-04-24T00:35:30;5.83;;;3.10;;
20627;SDS011;10473;42.734;24.258;2023-04-24T00:37:59;3.47;;;3.00;;
20627;SDS011;10473;42.734;24.258;2023-04-24T00:40:27;3.27;;;2.03;;
20627;SDS011;10473;42.734;24.258;2023-04-24T00:42:55;6.70;;;2.53;;
20627;SDS011;10473;42.734;24.258;2023-04-24T00:45:23;6.27;;;3.20;;
20627;SDS011;10473;42.734;24.258;2023-04-24T00:47:50;2.73;;;2.40;;
20627;SDS011;10473;42.734;24.258;2023-04-24T00:50:20;2.10;;;1.90;;
20627;SDS011;10473;42.734;24.258;2023-04-24T00:52:48;4.97;;;3.33;;
20627;SDS011;10473;42.734;24.258;2023-04-24T00:55:18;6.03;;;3.30;;
20627;SDS011;10473;42.734;24.258;2023-04-24T00:57:46;4.80;;;3.30;;
20627;SDS011;10473;42.734;24.258;2023-04-24T01:00:17;2.60;;;2.33;;
20627;SDS011;10473;42.734;24.258;2023-04-24T01:02:46;1.90;;;1.70;;
20627;SDS011;10473;42.734;24.258;2023-04-24T01:05:14;1.97;;;1.80;;
20627;SDS011;10473;42.734;24.258;2023-04-24T01:07:43;2.83;;;1.97;;
20627;SDS011;10473;42.734;24.258;2023-04-24T01:10:14;4.33;;;2.20;;
20627;SDS011;10473;42.734;24.258;2023-04-24T01:12:46;2.13;;;1.90;;
20627;SDS011;10473;42.734;24.258;2023-04-24T01:15:14;3.20;;;2.63;;
20627;SDS011;10473;42.734;24.258;2023-04-24T01:17:42;4.93;;;2.30;;
20627;SDS011;10473;42.734;24.258;2023-04-24T01:20:09;2.73;;;1.90;;
20627;SDS011;10473;42.734;24.258;2023-04-24T01:22:39;2.70;;;1.80;;
20627;SDS011;10473;42.734;24.258;2023-04-24T01:25:07;3.20;;;1.50;;
20627;SDS011;10473;42.734;24.258;2023-04-24T01:27:36;2.37;;;1.90;;
20627;SDS011;10473;42.734;24.258;2023-04-24T01:30:05;2.43;;;2.17;;
20627;SDS011;10473;42.734;24.258;2023-04-24T01:32:33;6.20;;;2.97;;
20627;SDS011;10473;42.734;24.258;2023-04-24T01:35:02;3.30;;;2.63;;
20627;SDS011;10473;42.734;24.258;2023-04-24T01:37:31;3.43;;;2.10;;
20627;SDS011;10473;42.734;24.258;2023-04-24T01:40:00;2.47;;;2.03;;
20627;SDS011;10473;42.734;24.258;2023-04-24T01:42:29;2.63;;;1.80;;
20627;SDS011;10473;42.734;24.258;2023-04-24T01:44:57;2.57;;;1.70;;
20627;SDS011;10473;42.734;24.258;2023-04-24T01:47:26;1.93;;;1.73;;
20627;SDS011;10473;42.734;24.258;2023-04-24T01:49:54;3.27;;;1.67;;
20627;SDS011;10473;42.734;24.258;2023-04-24T01:52:21;2.20;;;2.00;;
20627;SDS011;10473;42.734;24.258;2023-04-24T01:54:49;3.83;;;3.00;;
20627;SDS011;10473;42.734;24.258;2023-04-24T01:57:18;5.87;;;2.23;;
20627;SDS011;10473;42.734;24.258;2023-04-24T01:59:46;2.70;;;2.07;;
20627;SDS011;10473;42.734;24.258;2023-04-24T02:02:14;5.40;;;2.17;;
20627;SDS011;10473;42.734;24.258;2023-04-24T02:04:42;1.93;;;1.73;;
20627;SDS011;10473;42.734;24.258;2023-04-24T02:07:10;4.13;;;3.00;;
20627;SDS011;10473;42.734;24.258;2023-04-24T02:09:38;2.30;;;2.10;;
20627;SDS011;10473;42.734;24.258;2023-04-24T02:12:06;1.90;;;1.70;;
20627;SDS011;10473;42.734;24.258;2023-04-24T02:14:35;1.80;;;1.70;;
20627;SDS011;10473;42.734;24.258;2023-04-24T02:17:03;2.40;;;2.13;;
20627;SDS011;10473;42.734;24.258;2023-04-24T02:19:30;1.63;;;1.53;;
20627;SDS011;10473;42.734;24.258;2023-04-24T02:21:58;3.47;;;2.27;;
20627;SDS011;10473;42.734;24.258;2023-04-24T02:24:27;4.37;;;2.30;;
20627;SDS011;10473;42.734;24.258;2023-04-24T02:26:55;2.00;;;1.83;;
20627;SDS011;10473;42.734;24.258;2023-04-24T02:29:24;2.73;;;2.30;;
20627;SDS011;10473;42.734;24.258;2023-04-24T02:31:53;6.20;;;3.50;;
20627;SDS011;10473;42.734;24.258;2023-04-24T02:34:21;4.40;;;3.10;;
20627;SDS011;10473;42.734;24.258;2023-04-24T02:36:49;6.93;;;3.37;;
20627;SDS011;10473;42.734;24.258;2023-04-24T02:39:17;5.13;;;3.00;;
20627;SDS011;10473;42.734;24.258;2023-04-24T02:41:45;3.57;;;2.40;;
20627;SDS011;10473;42.734;24.258;2023-04-24T02:44:15;3.57;;;2.30;;
20627;SDS011;10473;42.734;24.258;2023-04-24T02:46:43;4.27;;;2.33;;
20627;SDS011;10473;42.734;24.258;2023-04-24T02:49:13;2.97;;;2.33;;
20627;SDS011;10473;42.734;24.258;2023-04-24T02:51:41;5.17;;;3.00;;
20627;SDS011;10473;42.734;24.258;2023-04-24T02:54:08;2.93;;;2.27;;
20627;SDS011;10473;42.734;24.258;2023-04-24T02:56:37;2.77;;;2.00;;
20627;SDS011;10473;42.734;24.258;2023-04-24T02:59:06;2.43;;;2.00;;
20627;SDS011;10473;42.734;24.258;2023-04-24T03:01:34;2.50;;;2.10;;
20627;SDS011;10473;42.734;24.258;2023-04-24T03:04:02;2.23;;;2.03;;
20627;SDS011;10473;42.734;24.258;2023-04-24T03:06:31;2.43;;;1.87;;
20627;SDS011;10473;42.734;24.258;2023-04-24T03:09:01;1.60;;;1.50;;
20627;SDS011;10473;42.734;24.258;2023-04-24T03:11:33;1.53;;;1.40;;
20627;SDS011;10473;42.734;24.258;2023-04-24T03:14:00;2.03;;;1.73;;
20627;SDS011;10473;42.734;24.258;2023-04-24T03:16:28;2.50;;;1.73;;
20627;SDS011;10473;42.734;24.258;2023-04-24T03:18:56;2.13;;;1.70;;
20627;SDS011;10473;42.734;24.258;2023-04-24T03:21:26;10.10;;;4.93;;
20627;SDS011;10473;42.734;24.258;2023-04-24T03:23:55;4.47;;;2.60;;
20627;SDS011;10473;42.734;24.258;2023-04-24T03:26:23;3.33;;;2.30;;
20627;SDS011;10473;42.734;24.258;2023-04-24T03:29:09;4.87;;;3.20;;
20627;SDS011;10473;42.734;24.258;2023-04-24T03:31:38;3.50;;;2.63;;
20627;SDS011;10473;42.734;24.258;2023-04-24T03:34:05;6.93;;;2.83;;
20627;SDS011;10473;42.734;24.258;2023-04-24T03:36:33;2.07;;;1.87;;
20627;SDS011;10473;42.734;24.258;2023-04-24T03:39:03;1.80;;;1.70;;
20627;SDS011;10473;42.734;24.258;2023-04-24T03:41:34;2.47;;;1.70;;
20627;SDS011;10473;42.734;24.258;2023-04-24T03:44:08;3.10;;;2.00;;
20627;SDS011;10473;42.734;24.258;2023-04-24T03:46:36;3.03;;;2.00;;
20627;SDS011;10473;42.734;24.258;2023-04-24T03:49:04;4.70;;;2.93;;
20627;SDS011;10473;42.734;24.258;2023-04-24T03:51:35;2.73;;;2.53;;
20627;SDS011;10473;42.734;24.258;2023-04-24T03:54:15;5.13;;;3.27;;
20627;SDS011;10473;42.734;24.258;2023-04-24T03:56:44;4.37;;;2.87;;
20627;SDS011;10473;42.734;24.258;2023-04-24T03:59:12;4.00;;;3.00;;
20627;SDS011;10473;42.734;24.258;2023-04-24T04:01:43;2.90;;;2.57;;
20627;SDS011;10473;42.734;24.258;2023-04-24T04:04:14;3.53;;;2.80;;
20627;SDS011;10473;42.734;24.258;2023-04-24T04:06:43;3.07;;;2.50;;
20627;SDS011;10473;42.734;24.258;2023-04-24T04:09:12;4.17;;;1.83;;
20627;SDS011;10473;42.734;24.258;2023-04-24T04:11:42;3.43;;;2.27;;
20627;SDS011;10473;42.734;24.258;2023-04-24T04:14:11;2.80;;;2.60;;
20627;SDS011;10473;42.734;24.258;2023-04-24T04:16:42;2.87;;;2.57;;
20627;SDS011;10473;42.734;24.258;2023-04-24T04:19:10;2.60;;;2.40;;
20627;SDS011;10473;42.734;24.258;2023-04-24T04:21:38;3.40;;;2.47;;
20627;SDS011;10473;42.734;24.258;2023-04-24T04:24:12;3.97;;;2.60;;
20627;SDS011;10473;42.734;24.258;2023-04-24T04:26:46;2.60;;;2.40;;
20627;SDS011;10473;42.734;24.258;2023-04-24T04:29:27;4.63;;;2.80;;
20627;SDS011;10473;42.734;24.258;2023-04-24T04:31:56;3.63;;;2.53;;
20627;SDS011;10473;42.734;24.258;2023-04-24T04:34:24;5.07;;;2.53;;
20627;SDS011;10473;42.734;24.258;2023-04-24T04:36:52;15.87;;;8.17;;
20627;SDS011;10473;42.734;24.258;2023-04-24T04:39:36;24.77;;;13.60;;
20627;SDS011;10473;42.734;24.258;2023-04-24T04:42:09;15.43;;;8.33;;
20627;SDS011;10473;42.734;24.258;2023-04-24T04:44:41;22.97;;;12.47;;
20627;SDS011;10473;42.734;24.258;2023-04-24T04:47:16;26.20;;;15.77;;
20627;SDS011;10473;42.734;24.258;2023-04-24T04:49:45;16.27;;;9.83;;
20627;SDS011;10473;42.734;24.258;2023-04-24T04:52:18;11.27;;;7.10;;
20627;SDS011;10473;42.734;24.258;2023-04-24T04:54:50;7.20;;;5.33;;
20627;SDS011;10473;42.734;24.258;2023-04-24T04:57:20;11.77;;;7.23;;
20627;SDS011;10473;42.734;24.258;2023-04-24T04:59:48;13.90;;;8.20;;
20627;SDS011;10473;42.734;24.258;2023-04-24T05:02:26;22.67;;;15.30;;
20627;SDS011;10473;42.734;24.258;2023-04-24T05:04:54;9.87;;;6.47;;
20627;SDS011;10473;42.734;24.258;2023-04-24T05:07:23;10.33;;;5.13;;
20627;SDS011;10473;42.734;24.258;2023-04-24T05:09:54;4.13;;;3.53;;
20627;SDS011;10473;42.734;24.258;2023-04-24T05:12:23;5.83;;;4.00;;
20627;SDS011;10473;42.734;24.258;2023-04-24T05:14:52;5.37;;;4.10;;
20627;SDS011;10473;42.734;24.258;2023-04-24T05:17:21;4.73;;;4.30;;
20627;SDS011;10473;42.734;24.258;2023-04-24T05:19:50;4.00;;;3.60;;
20627;SDS011;10473;42.734;24.258;2023-04-24T05:22:18;7.60;;;4.07;;
20627;SDS011;10473;42.734;24.258;2023-04-24T05:24:51;2.83;;;2.23;;
20627;SDS011;10473;42.734;24.258;2023-04-24T05:27:43;2.30;;;2.10;;
20627;SDS011;10473;42.734;24.258;2023-04-24T05:30:14;4.40;;;2.87;;
20627;SDS011;10473;42.734;24.258;2023-04-24T05:32:42;3.10;;;2.80;;
20627;SDS011;10473;42.734;24.258;2023-04-24T05:35:10;5.60;;;3.17;;
20627;SDS011;10473;42.734;24.258;2023-04-24T05:37:38;7.37;;;2.87;;
20627;SDS011;10473;42.734;24.258;2023-04-24T05:40:09;4.90;;;3.27;;
20627;SDS011;10473;42.734;24.258;2023-04-24T05:42:37;9.63;;;4.90;;
20627;SDS011;10473;42.734;24.258;2023-04-24T05:45:07;9.23;;;4.27;;
20627;SDS011;10473;42.734;24.258;2023-04-24T05:47:41;4.83;;;2.87;;
20627;SDS011;10473;42.734;24.258;2023-04-24T05:50:10;5.23;;;3.60;;
20627;SDS011;10473;42.734;24.258;2023-04-24T05:52:38;4.23;;;3.60;;
20627;SDS011;10473;42.734;24.258;2023-04-24T05:55:17;14.87;;;4.33;;
20627;SDS011;10473;42.734;24.258;2023-04-24T05:57:46;7.13;;;4.37;;
20627;SDS011;10473;42.734;24.258;2023-04-24T06:00:15;5.43;;;4.23;;
20627;SDS011;10473;42.734;24.258;2023-04-24T06:02:50;4.87;;;3.33;;
20627;SDS011;10473;42.734;24.258;2023-04-24T06:05:20;5.97;;;4.37;;
20627;SDS011;10473;42.734;24.258;2023-04-24T06:07:48;4.73;;;2.90;;
20627;SDS011;10473;42.734;24.258;2023-04-24T06:10:16;2.63;;;2.43;;
20627;SDS011;10473;42.734;24.258;2023-04-24T06:12:44;3.53;;;2.73;;
20627;SDS011;10473;42.734;24.258;2023-04-24T06:15:17;5.13;;;2.93;;
20627;SDS011;10473;42.734;24.258;2023-04-24T06:18:06;4.10;;;2.60;;
20627;SDS011;10473;42.734;24.258;2023-04-24T06:20:36;4.50;;;3.27;;
20627;SDS011;10473;42.734;24.258;2023-04-24T06:23:04;5.67;;;4.00;;
20627;SDS011;10473;42.734;24.258;2023-04-24T06:25:33;3.00;;;2.07;;
20627;SDS011;10473;42.734;24.258;2023-04-24T06:28:01;2.87;;;2.20;;
20627;SDS011;10473;42.734;24.258;2023-04-24T06:30:31;4.17;;;2.40;;
20627;SDS011;10473;42.734;24.258;2023-04-24T06:32:59;2.27;;;1.77;;
20627;SDS011;10473;42.734;24.258;2023-04-24T06:35:27;3.67;;;2.47;;
20627;SDS011;10473;42.734;24.258;2023-04-24T06:37:55;4.67;;;1.73;;
20627;SDS011;10473;42.734;24.258;2023-04-24T06:40:23;6.13;;;2.27;;
20627;SDS011;10473;42.734;24.258;2023-04-24T06:42:51;4.13;;;2.63;;
20627;SDS011;10473;42.734;24.258;2023-04-24T06:45:18;6.20;;;2.90;;
20627;SDS011;10473;42.734;24.258;2023-04-24T06:47:48;2.97;;;2.23;;
20627;SDS011;10473;42.734;24.258;2023-04-24T06:50:16;3.27;;;2.97;;
20627;SDS011;10473;42.734;24.258;2023-04-24T06:52:43;8.63;;;5.07;;
20627;SDS011;10473;42.734;24.258;2023-04-24T06:55:11;3.43;;;2.50;;
20627;SDS011;10473;42.734;24.258;2023-04-24T06:57:41;4.03;;;2.33;;
20627;SDS011;10473;42.734;24.258;2023-04-24T07:00:10;2.33;;;2.10;;
20627;SDS011;10473;42.734;24.258;2023-04-24T07:02:38;2.53;;;2.30;;
20627;SDS011;10473;42.734;24.258;2023-04-24T07:05:08;4.67;;;2.50;;
20627;SDS011;10473;42.734;24.258;2023-04-24T07:07:36;2.43;;;2.10;;
20627;SDS011;10473;42.734;24.258;2023-04-24T07:10:06;2.97;;;2.10;;
20627;SDS011;10473;42.734;24.258;2023-04-24T07:12:34;3.60;;;2.67;;
20627;SDS011;10473;42.734;24.258;2023-04-24T07:15:03;3.80;;;2.60;;
20627;SDS011;10473;42.734;24.258;2023-04-24T07:17:32;3.77;;;2.83;;
20627;SDS011;10473;42.734;24.258;2023-04-24T07:19:59;2.47;;;2.23;;
20627;SDS011;10473;42.734;24.258;2023-04-24T07:22:28;1.77;;;1.63;;
20627;SDS011;10473;42.734;24.258;2023-04-24T07:24:56;3.10;;;2.00;;
20627;SDS011;10473;42.734;24.258;2023-04-24T07:27:25;3.90;;;3.10;;
20627;SDS011;10473;42.734;24.258;2023-04-24T07:29:53;2.70;;;2.40;;
20627;SDS011;10473;42.734;24.258;2023-04-24T07:32:21;2.73;;;2.43;;
20627;SDS011;10473;42.734;24.258;2023-04-24T07:34:49;2.97;;;2.67;;
20627;SDS011;10473;42.734;24.258;2023-04-24T07:37:16;3.10;;;2.47;;
20627;SDS011;10473;42.734;24.258;2023-04-24T07:39:45;2.57;;;2.37;;
20627;SDS011;10473;42.734;24.258;2023-04-24T07:42:13;4.37;;;2.53;;
20627;SDS011;10473;42.734;24.258;2023-04-24T07:44:41;3.40;;;2.97;;
20627;SDS011;10473;42.734;24.258;2023-04-24T07:47:09;4.57;;;3.40;;
20627;SDS011;10473;42.734;24.258;2023-04-24T07:49:36;6.07;;;3.60;;
20627;SDS011;10473;42.734;24.258;2023-04-24T07:52:04;4.20;;;2.73;;
20627;SDS011;10473;42.734;24.258;2023-04-24T07:54:32;4.53;;;2.90;;
20627;SDS011;10473;42.734;24.258;2023-04-24T07:57:01;4.23;;;3.07;;
20627;SDS011;10473;42.734;24.258;2023-04-24T07:59:28;6.73;;;3.13;;
20627;SDS011;10473;42.734;24.258;2023-04-24T08:01:56;2.87;;;2.40;;
20627;SDS011;10473;42.734;24.258;2023-04-24T08:04:24;7.27;;;4.67;;
20627;SDS011;10473;42.734;24.258;2023-04-24T08:06:51;5.47;;;3.60;;
20627;SDS011;10473;42.734;24.258;2023-04-24T08:09:19;4.17;;;3.20;;
20627;SDS011;10473;42.734;24.258;2023-04-24T08:11:47;3.03;;;2.30;;
20627;SDS011;10473;42.734;24.258;2023-04-24T08:14:20;4.20;;;2.73;;
20627;SDS011;10473;42.734;24.258;2023-04-24T08:16:47;3.20;;;2.80;;
20627;SDS011;10473;42.734;24.258;2023-04-24T08:19:15;2.20;;;2.00;;
20627;SDS011;10473;42.734;24.258;2023-04-24T08:21:43;5.13;;;2.70;;
20627;SDS011;10473;42.734;24.258;2023-04-24T08:24:10;3.73;;;2.13;;
20627;SDS011;10473;42.734;24.258;2023-04-24T08:26:38;2.83;;;1.90;;
20627;SDS011;10473;42.734;24.258;2023-04-24T08:29:07;2.33;;;2.07;;
20627;SDS011;10473;42.734;24.258;2023-04-24T08:31:38;2.07;;;1.87;;
20627;SDS011;10473;42.734;24.258;2023-04-24T08:34:05;2.30;;;1.80;;
20627;SDS011;10473;42.734;24.258;2023-04-24T08:36:33;2.90;;;2.10;;
20627;SDS011;10473;42.734;24.258;2023-04-24T08:39:01;2.60;;;1.60;;
20627;SDS011;10473;42.734;24.258;2023-04-24T08:41:28;1.70;;;1.57;;
20627;SDS011;10473;42.734;24.258;2023-04-24T08:43:57;3.20;;;1.87;;
20627;SDS011;10473;42.734;24.258;2023-04-24T08:46:25;1.90;;;1.70;;
20627;SDS011;10473;42.734;24.258;2023-04-24T08:48:54;1.53;;;1.43;;
20627;SDS011;10473;42.734;24.258;2023-04-24T08:51:23;1.97;;;1.87;;
20627;SDS011;10473;42.734;24.258;2023-04-24T08:53:53;2.10;;;1.90;;
20627;SDS011;10473;42.734;24.258;2023-04-24T08:56:21;1.93;;;1.53;;
20627;SDS011;10473;42.734;24.258;2023-04-24T08:58:50;1.97;;;1.73;;
20627;SDS011;10473;42.734;24.258;2023-04-24T09:01:19;2.07;;;1.33;;
20627;SDS011;10473;42.734;24.258;2023-04-24T09:03:47;2.50;;;1.73;;
20627;SDS011;10473;42.734;24.258;2023-04-24T09:06:17;2.53;;;1.60;;
20627;SDS011;10473;42.734;24.258;2023-04-24T09:08:48;2.63;;;1.70;;
20627;SDS011;10473;42.734;24.258;2023-04-24T09:11:20;2.53;;;2.33;;
20627;SDS011;10473;42.734;24.258;2023-04-24T09:13:49;1.80;;;1.70;;
20627;SDS011;10473;42.734;24.258;2023-04-24T09:16:17;2.40;;;1.80;;
20627;SDS011;10473;42.734;24.258;2023-04-24T09:18:46;2.10;;;1.63;;
20627;SDS011;10473;42.734;24.258;2023-04-24T09:21:20;1.63;;;1.53;;
20627;SDS011;10473;42.734;24.258;2023-04-24T09:23:57;1.90;;;1.53;;
20627;SDS011;10473;42.734;24.258;2023-04-24T09:26:28;2.47;;;1.70;;
20627;SDS011;10473;42.734;24.258;2023-04-24T09:28:59;6.17;;;4.20;;
20627;SDS011;10473;42.734;24.258;2023-04-24T09:31:27;2.20;;;1.67;;
20627;SDS011;10473;42.734;24.258;2023-04-24T09:33:56;1.60;;;1.50;;
20627;SDS011;10473;42.734;24.258;2023-04-24T09:36:30;4.43;;;2.20;;
20627;SDS011;10473;42.734;24.258;2023-04-24T09:39:00;1.70;;;1.60;;
20627;SDS011;10473;42.734;24.258;2023-04-24T09:41:28;1.60;;;1.50;;
20627;SDS011;10473;42.734;24.258;2023-04-24T09:43:56;1.60;;;1.50;;
20627;SDS011;10473;42.734;24.258;2023-04-24T09:46:29;2.20;;;1.83;;
20627;SDS011;10473;42.734;24.258;2023-04-24T09:49:02;1.63;;;1.53;;
20627;SDS011;10473;42.734;24.258;2023-04-24T09:51:38;1.87;;;1.60;;
20627;SDS011;10473;42.734;24.258;2023-04-24T09:54:11;1.83;;;1.73;;
20627;SDS011;10473;42.734;24.258;2023-04-24T09:56:43;1.60;;;1.40;;
20627;SDS011;10473;42.734;24.258;2023-04-24T09:59:12;1.50;;;1.27;;
20627;SDS011;10473;42.734;24.258;2023-04-24T10:01:40;1.50;;;1.40;;
20627;SDS011;10473;42.734;24.258;2023-04-24T10:04:16;1.70;;;1.60;;
20627;SDS011;10473;42.734;24.258;2023-04-24T10:06:47;1.80;;;1.70;;
20627;SDS011;10473;42.734;24.258;2023-04-24T10:09:16;1.90;;;1.60;;
20627;SDS011;10473;42.734;24.258;2023-04-24T10:11:45;1.50;;;1.37;;
20627;SDS011;10473;42.734;24.258;2023-04-24T10:14:15;2.83;;;1.40;;
20627;SDS011;10473;42.734;24.258;2023-04-24T10:16:44;1.40;;;1.30;;
20627;SDS011;10473;42.734;24.258;2023-04-24T10:19:13;1.83;;;1.33;;
20627;SDS011;10473;42.734;24.258;2023-04-24T10:21:42;1.97;;;1.87;;
20627;SDS011;10473;42.734;24.258;2023-04-24T10:24:14;2.33;;;1.80;;
20627;SDS011;10473;42.734;24.258;2023-04-24T10:26:43;1.77;;;1.23;;
20627;SDS011;10473;42.734;24.258;2023-04-24T10:29:14;2.20;;;2.00;;
20627;SDS011;10473;42.734;24.258;2023-04-24T10:31:45;1.53;;;1.43;;
20627;SDS011;10473;42.734;24.258;2023-04-24T10:34:14;1.40;;;1.10;;
20627;SDS011;10473;42.734;24.258;2023-04-24T10:36:44;2.20;;;1.70;;
20627;SDS011;10473;42.734;24.258;2023-04-24T10:39:19;1.60;;;1.27;;
20627;SDS011;10473;42.734;24.258;2023-04-24T10:41:48;1.93;;;1.53;;
20627;SDS011;10473;42.734;24.258;2023-04-24T10:44:16;1.43;;;1.30;;
20627;SDS011;10473;42.734;24.258;2023-04-24T10:47:01;2.40;;;1.47;;
20627;SDS011;10473;42.734;24.258;2023-04-24T10:49:29;1.63;;;1.30;;
20627;SDS011;10473;42.734;24.258;2023-04-24T10:52:00;1.37;;;1.27;;
20627;SDS011;10473;42.734;24.258;2023-04-24T10:54:34;1.60;;;1.50;;
20627;SDS011;10473;42.734;24.258;2023-04-24T11:00:10;1.57;;;1.30;;
20627;SDS011;10473;42.734;24.258;2023-04-24T11:02:42;3.13;;;1.63;;
20627;SDS011;10473;42.734;24.258;2023-04-24T11:05:16;1.50;;;1.20;;
20627;SDS011;10473;42.734;24.258;2023-04-24T11:10:47;1.50;;;1.40;;
20627;SDS011;10473;42.734;24.258;2023-04-24T11:13:24;2.17;;;1.10;;
20627;SDS011;10473;42.734;24.258;2023-04-24T11:18:42;1.50;;;1.40;;
20627;SDS011;10473;42.734;24.258;2023-04-24T11:21:16;3.47;;;1.73;;
20627;SDS011;10473;42.734;24.258;2023-04-24T11:23:44;2.23;;;1.53;;
20627;SDS011;10473;42.734;24.258;2023-04-24T11:26:17;1.20;;;1.10;;
20627;SDS011;10473;42.734;24.258;2023-04-24T11:28:46;2.17;;;1.60;;
20627;SDS011;10473;42.734;24.258;2023-04-24T11:34:08;6.60;;;2.43;;
20627;SDS011;10473;42.734;24.258;2023-04-24T11:36:36;1.53;;;1.40;;
20627;SDS011;10473;42.734;24.258;2023-04-24T11:39:04;12.77;;;6.30;;
20627;SDS011;10473;42.734;24.258;2023-04-24T14:46:56;3.10;;;1.60;;
20627;SDS011;10473;42.734;24.258;2023-04-24T14:49:24;2.83;;;2.43;;
20627;SDS011;10473;42.734;24.258;2023-04-24T14:51:51;3.30;;;2.17;;
20627;SDS011;10473;42.734;24.258;2023-04-24T14:54:19;13.10;;;6.00;;
20627;SDS011;10473;42.734;24.258;2023-04-24T14:56:49;11.00;;;4.80;;
20627;SDS011;10473;42.734;24.258;2023-04-24T14:59:16;10.93;;;5.23;;
20627;SDS011;10473;42.734;24.258;2023-04-24T15:01:44;1.67;;;1.47;;
20627;SDS011;10473;42.734;24.258;2023-04-24T15:04:13;3.40;;;2.53;;
20627;SDS011;10473;42.734;24.258;2023-04-24T15:06:41;5.83;;;3.30;;
20627;SDS011;10473;42.734;24.258;2023-04-24T15:09:08;2.60;;;1.83;;
20627;SDS011;10473;42.734;24.258;2023-04-24T15:11:36;2.90;;;2.27;;
20627;SDS011;10473;42.734;24.258;2023-04-24T15:14:04;2.23;;;1.93;;
20627;SDS011;10473;42.734;24.258;2023-04-24T15:16:31;1.80;;;1.20;;
20627;SDS011;10473;42.734;24.258;2023-04-24T15:18:59;1.47;;;1.30;;
20627;SDS011;10473;42.734;24.258;2023-04-24T15:21:28;2.17;;;1.60;;
20627;SDS011;10473;42.734;24.258;2023-04-24T15:23:56;3.43;;;1.50;;
20627;SDS011;10473;42.734;24.258;2023-04-24T15:26:24;2.00;;;1.80;;
20627;SDS011;10473;42.734;24.258;2023-04-24T15:28:52;3.03;;;1.40;;
20627;SDS011;10473;42.734;24.258;2023-04-24T15:31:20;2.80;;;1.63;;
20627;SDS011;10473;42.734;24.258;2023-04-24T15:33:48;3.00;;;2.00;;
20627;SDS011;10473;42.734;24.258;2023-04-24T15:36:16;4.83;;;2.80;;
20627;SDS011;10473;42.734;24.258;2023-04-24T15:38:47;2.90;;;2.20;;
20627;SDS011;10473;42.734;24.258;2023-04-24T15:41:15;3.37;;;2.17;;
20627;SDS011;10473;42.734;24.258;2023-04-24T15:43:42;1.80;;;1.70;;
20627;SDS011;10473;42.734;24.258;2023-04-24T15:46:10;3.20;;;2.20;;
20627;SDS011;10473;42.734;24.258;2023-04-24T15:48:38;2.50;;;1.93;;
20627;SDS011;10473;42.734;24.258;2023-04-24T15:51:07;5.40;;;1.50;;
20627;SDS011;10473;42.734;24.258;2023-04-24T15:53:34;2.80;;;2.23;;
20627;SDS011;10473;42.734;24.258;2023-04-24T15:56:03;2.67;;;1.80;;
20627;SDS011;10473;42.734;24.258;2023-04-24T15:58:31;2.13;;;1.87;;
20627;SDS011;10473;42.734;24.258;2023-04-24T16:00:59;2.30;;;2.00;;
20627;SDS011;10473;42.734;24.258;2023-04-24T16:03:27;2.93;;;2.50;;
20627;SDS011;10473;42.734;24.258;2023-04-24T16:05:54;1.77;;;1.67;;
20627;SDS011;10473;42.734;24.258;2023-04-24T16:08:23;4.17;;;2.03;;
20627;SDS011;10473;42.734;24.258;2023-04-24T16:10:50;2.30;;;1.80;;
20627;SDS011;10473;42.734;24.258;2023-04-24T16:13:19;4.57;;;3.27;;
20627;SDS011;10473;42.734;24.258;2023-04-24T16:15:47;2.83;;;2.47;;
20627;SDS011;10473;42.734;24.258;2023-04-24T16:18:16;9.43;;;5.37;;
20627;SDS011;10473;42.734;24.258;2023-04-24T16:20:44;5.53;;;4.20;;
20627;SDS011;10473;42.734;24.258;2023-04-24T16:23:12;3.27;;;2.97;;
20627;SDS011;10473;42.734;24.258;2023-04-24T16:25:40;4.93;;;3.37;;
20627;SDS011;10473;42.734;24.258;2023-04-24T16:28:08;5.63;;;3.70;;
20627;SDS011;10473;42.734;24.258;2023-04-24T16:30:38;5.23;;;4.03;;
20627;SDS011;10473;42.734;24.258;2023-04-24T16:33:06;10.37;;;6.17;;
20627;SDS011;10473;42.734;24.258;2023-04-24T16:35:34;5.80;;;4.30;;
20627;SDS011;10473;42.734;24.258;2023-04-24T16:38:01;4.40;;;3.37;;
20627;SDS011;10473;42.734;24.258;2023-04-24T16:40:30;12.37;;;5.40;;
20627;SDS011;10473;42.734;24.258;2023-04-24T16:42:57;6.60;;;3.83;;
20627;SDS011;10473;42.734;24.258;2023-04-24T16:45:25;5.90;;;4.40;;
20627;SDS011;10473;42.734;24.258;2023-04-24T16:47:54;4.93;;;3.37;;
20627;SDS011;10473;42.734;24.258;2023-04-24T16:50:22;4.10;;;3.47;;
20627;SDS011;10473;42.734;24.258;2023-04-24T16:52:49;3.47;;;3.07;;
20627;SDS011;10473;42.734;24.258;2023-04-24T16:55:17;4.57;;;2.90;;
20627;SDS011;10473;42.734;24.258;2023-04-24T16:57:44;4.90;;;3.50;;
20627;SDS011;10473;42.734;24.258;2023-04-24T17:00:13;4.60;;;2.70;;
20627;SDS011;10473;42.734;24.258;2023-04-24T17:02:41;2.80;;;2.40;;
20627;SDS011;10473;42.734;24.258;2023-04-24T17:05:14;2.97;;;1.70;;
20627;SDS011;10473;42.734;24.258;2023-04-24T17:07:44;3.27;;;2.07;;
20627;SDS011;10473;42.734;24.258;2023-04-24T17:10:11;3.60;;;2.67;;
20627;SDS011;10473;42.734;24.258;2023-04-24T17:12:39;5.53;;;3.13;;
20627;SDS011;10473;42.734;24.258;2023-04-24T17:15:07;5.17;;;4.10;;
20627;SDS011;10473;42.734;24.258;2023-04-24T17:17:35;7.90;;;4.53;;
20627;SDS011;10473;42.734;24.258;2023-04-24T17:20:02;4.90;;;3.83;;
20627;SDS011;10473;42.734;24.258;2023-04-24T17:22:32;6.97;;;4.30;;
20627;SDS011;10473;42.734;24.258;2023-04-24T17:25:01;7.20;;;4.97;;
20627;SDS011;10473;42.734;24.258;2023-04-24T17:27:29;8.47;;;4.77;;
20627;SDS011;10473;42.734;24.258;2023-04-24T17:29:57;5.03;;;4.53;;
20627;SDS011;10473;42.734;24.258;2023-04-24T17:32:35;5.63;;;4.30;;
20627;SDS011;10473;42.734;24.258;2023-04-24T17:35:41;5.97;;;4.40;;
20627;SDS011;10473;42.734;24.258;2023-04-24T17:38:10;5.30;;;4.33;;
20627;SDS011;10473;42.734;24.258;2023-04-24T17:40:40;4.83;;;3.70;;
20627;SDS011;10473;42.734;24.258;2023-04-24T17:43:07;3.83;;;3.17;;
20627;SDS011;10473;42.734;24.258;2023-04-24T17:45:35;3.83;;;3.47;;
20627;SDS011;10473;42.734;24.258;2023-04-24T17:48:03;9.23;;;6.63;;
20627;SDS011;10473;42.734;24.258;2023-04-24T17:50:31;8.43;;;6.73;;
20627;SDS011;10473;42.734;24.258;2023-04-24T17:52:58;10.73;;;7.50;;
20627;SDS011;10473;42.734;24.258;2023-04-24T17:55:28;15.27;;;9.00;;
20627;SDS011;10473;42.734;24.258;2023-04-24T17:57:55;14.13;;;7.93;;
20627;SDS011;10473;42.734;24.258;2023-04-24T18:00:23;6.50;;;4.37;;
20627;SDS011;10473;42.734;24.258;2023-04-24T18:02:51;7.57;;;4.43;;